createdAt,value
2023-03-05T00:01:08.620Z,5.52
2023-03-05T00:03:36.992Z,5.47
2023-03-05T00:06:07.407Z,5.42
2023-03-05T00:08:36.028Z,5.38
2023-03-05T00:11:07.046Z,5.35
2023-03-05T00:13:35.904Z,5.32
2023-03-05T00:16:04.711Z,5.31
2023-03-05T00:18:32.870Z,5.29
2023-03-05T00:21:00.861Z,5.28
2023-03-05T00:23:30.492Z,5.28
2023-03-05T00:25:58.588Z,5.30
2023-03-05T00:28:26.634Z,5.34
2023-03-05T00:30:54.754Z,5.42
2023-03-05T00:33:22.838Z,5.53
2023-03-05T00:35:51.038Z,5.62
2023-03-05T00:38:19.170Z,5.69
2023-03-05T00:40:52.139Z,5.68
2023-03-05T00:43:20.223Z,5.70
2023-03-05T00:45:48.224Z,5.68
2023-03-05T00:48:16.253Z,5.68
2023-03-05T00:50:44.407Z,5.69
2023-03-05T00:53:12.447Z,5.66
2023-03-05T00:55:40.559Z,5.65
2023-03-05T00:58:10.392Z,5.61
2023-03-05T01:00:38.582Z,5.61
2023-03-05T01:03:06.802Z,5.58
2023-03-05T01:05:35.047Z,5.54
2023-03-05T01:08:03.241Z,5.50
2023-03-05T01:10:31.562Z,5.47
2023-03-05T01:12:59.589Z,5.43
2023-03-05T01:15:29.035Z,5.40
2023-03-05T01:17:57.063Z,5.34
2023-03-05T01:20:25.173Z,5.31
2023-03-05T01:22:53.987Z,5.28
2023-03-05T01:25:22.139Z,5.23
2023-03-05T01:27:50.216Z,5.17
2023-03-05T01:30:18.457Z,5.11
2023-03-05T01:32:48.017Z,5.05
2023-03-05T01:35:19.328Z,4.99
2023-03-05T01:37:47.524Z,4.93
2023-03-05T01:40:18.578Z,4.83
2023-03-05T01:42:48.193Z,4.75
2023-03-05T01:45:19.475Z,4.64
2023-03-05T01:47:49.110Z,4.56
2023-03-05T01:50:20.908Z,4.46
2023-03-05T01:52:52.580Z,4.38
2023-03-05T01:55:23.692Z,4.32
2023-03-05T01:57:55.247Z,4.26
2023-03-05T02:00:29.087Z,4.20
2023-03-05T02:03:02.763Z,4.11
2023-03-05T02:05:33.399Z,4.03
2023-03-05T02:08:03.355Z,4.00
2023-03-05T02:10:34.135Z,3.95
2023-03-05T02:13:05.262Z,3.96
2023-03-05T02:15:34.537Z,3.93
2023-03-05T02:18:04.126Z,3.92
2023-03-05T02:20:44.664Z,3.93
2023-03-05T02:23:14.084Z,3.92
2023-03-05T02:25:42.208Z,3.89
2023-03-05T02:28:16.561Z,3.85
2023-03-05T02:30:44.720Z,3.86
2023-03-05T02:33:14.370Z,3.82
2023-03-05T02:35:43.804Z,3.81
2023-03-05T02:38:13.870Z,3.77
2023-03-05T02:40:41.902Z,3.76
2023-03-05T02:43:10.573Z,3.73
2023-03-05T02:45:39.051Z,3.69
2023-03-05T02:48:07.824Z,3.68
2023-03-05T02:50:36.658Z,3.63
2023-03-05T02:53:04.798Z,3.60
2023-03-05T02:55:34.178Z,3.54
2023-03-05T02:58:02.548Z,3.52
2023-03-05T03:00:31.222Z,3.49
2023-03-05T03:02:59.293Z,3.46
2023-03-05T03:05:27.543Z,3.43
2023-03-05T03:07:55.557Z,3.40
2023-03-05T03:10:23.826Z,3.37
2023-03-05T03:12:53.185Z,3.35
2023-03-05T03:15:21.357Z,3.31
2023-03-05T03:17:49.729Z,3.29
2023-03-05T03:20:19.064Z,3.26
2023-03-05T03:22:48.087Z,3.25
2023-03-05T03:25:17.493Z,3.23
2023-03-05T03:27:45.683Z,3.23
2023-03-05T03:30:17.335Z,3.23
2023-03-05T03:32:45.572Z,3.23
2023-03-05T03:35:14.693Z,3.21
2023-03-05T03:37:42.782Z,3.22
2023-03-05T03:40:12.587Z,3.20
2023-03-05T03:42:40.623Z,3.19
2023-03-05T03:45:09.813Z,3.15
2023-03-05T03:47:39.396Z,3.08
2023-03-05T03:50:08.342Z,3.03
2023-03-05T03:52:36.471Z,2.98
2023-03-05T03:55:04.875Z,2.91
2023-03-05T03:57:33.525Z,2.85
2023-03-05T04:00:01.814Z,2.82
2023-03-05T04:02:29.909Z,2.79
2023-03-05T04:04:59.337Z,2.73
2023-03-05T04:07:27.592Z,2.70
2023-03-05T04:09:55.872Z,2.68
2023-03-05T04:12:23.909Z,2.65
2023-03-05T04:14:52.033Z,2.62
2023-03-05T04:17:20.034Z,2.60
2023-03-05T04:19:48.104Z,2.57
2023-03-05T04:22:18.832Z,2.56
2023-03-05T04:24:47.144Z,2.46
2023-03-05T04:27:15.136Z,2.40
2023-03-05T04:29:43.276Z,2.38
2023-03-05T04:32:11.501Z,2.37
2023-03-05T04:34:39.780Z,2.34
2023-03-05T04:37:08.691Z,2.32
2023-03-05T04:39:38.317Z,2.28
2023-03-05T04:42:06.760Z,2.24
2023-03-05T04:44:34.733Z,2.22
2023-03-05T04:47:02.660Z,2.22
2023-03-05T04:49:30.984Z,2.19
2023-03-05T04:51:59.028Z,2.21
2023-03-05T04:54:27.214Z,2.15
2023-03-05T04:56:56.717Z,2.07
2023-03-05T04:59:24.949Z,1.98
2023-03-05T05:01:53.003Z,1.93
2023-03-05T05:04:21.208Z,1.91
2023-03-05T05:06:49.170Z,1.89
2023-03-05T05:09:17.235Z,1.85
2023-03-05T05:11:45.368Z,1.85
2023-03-05T05:14:15.015Z,1.86
2023-03-05T05:16:43.120Z,1.87
2023-03-05T05:19:11.552Z,1.91
2023-03-05T05:21:39.936Z,1.94
2023-03-05T05:24:08.800Z,2.01
2023-03-05T05:26:37.092Z,2.09
2023-03-05T05:29:05.530Z,2.16
2023-03-05T05:31:35.127Z,2.24
2023-03-05T05:34:03.283Z,2.30
2023-03-05T05:36:31.376Z,2.34
2023-03-05T05:39:00.015Z,2.33
2023-03-05T05:41:28.091Z,2.35
2023-03-05T05:43:56.215Z,2.37
2023-03-05T05:46:24.897Z,2.43
2023-03-05T05:48:54.358Z,2.51
2023-03-05T05:51:24.399Z,2.57
2023-03-05T05:53:52.534Z,2.61
2023-03-05T05:56:21.258Z,2.61
2023-03-05T05:58:50.384Z,2.61
2023-03-05T06:01:23.608Z,2.59
2023-03-05T06:03:52.530Z,2.67
2023-03-05T06:06:29.387Z,2.76
2023-03-05T06:08:59.181Z,2.88
2023-03-05T06:11:27.174Z,3.06
2023-03-05T06:13:55.359Z,3.27
2023-03-05T06:16:25.862Z,3.46
2023-03-05T06:18:54.398Z,3.66
2023-03-05T06:21:24.617Z,3.78
2023-03-05T06:23:53.140Z,3.93
2023-03-05T06:26:23.307Z,4.06
2023-03-05T06:28:51.344Z,4.13
2023-03-05T06:31:21.963Z,4.22
2023-03-05T06:33:50.741Z,4.35
2023-03-05T06:36:20.785Z,4.48
2023-03-05T06:38:53.110Z,4.54
2023-03-05T06:41:23.228Z,4.61
2023-03-05T06:43:51.794Z,4.71
2023-03-05T06:46:21.646Z,4.80
2023-03-05T06:48:50.480Z,4.81
2023-03-05T06:51:21.208Z,4.83
2023-03-05T06:53:50.908Z,4.83
2023-03-05T06:56:20.251Z,4.82
2023-03-05T06:58:50.648Z,4.80
2023-03-05T07:01:19.726Z,4.80
2023-03-05T07:03:50.919Z,4.78
2023-03-05T07:06:19.807Z,4.76
2023-03-05T07:08:48.015Z,4.74
2023-03-05T07:11:19.612Z,4.68
2023-03-05T07:13:48.764Z,4.67
2023-03-05T07:16:18.677Z,4.71
2023-03-05T07:18:47.203Z,4.73
2023-03-05T07:21:18.515Z,4.78
2023-03-05T07:23:47.029Z,4.82
2023-03-05T07:26:15.404Z,4.82
2023-03-05T07:28:45.195Z,4.79
2023-03-05T07:31:15.052Z,4.84
2023-03-05T07:33:43.181Z,4.91
2023-03-05T07:36:11.949Z,5.02
2023-03-05T07:38:40.193Z,5.12
2023-03-05T07:41:10.452Z,5.21
2023-03-05T07:43:39.006Z,5.31
2023-03-05T07:46:10.127Z,5.44
2023-03-05T07:48:38.383Z,5.56
2023-03-05T07:51:08.680Z,5.66
2023-03-05T07:53:36.954Z,5.81
2023-03-05T07:56:05.520Z,5.84
2023-03-05T07:58:33.746Z,5.81
2023-03-05T08:01:01.756Z,5.82
2023-03-05T08:03:31.255Z,5.75
2023-03-05T08:05:59.326Z,5.81
2023-03-05T08:08:27.356Z,5.86
2023-03-05T08:10:55.337Z,5.97
2023-03-05T08:13:23.380Z,6.15
2023-03-05T08:15:51.559Z,6.30
2023-03-05T08:18:19.635Z,6.33
2023-03-05T08:20:49.072Z,6.38
2023-03-05T08:23:17.129Z,6.55
2023-03-05T08:25:45.212Z,6.69
2023-03-05T08:28:13.406Z,6.72
2023-03-05T08:30:42.432Z,6.64
2023-03-05T08:33:10.398Z,6.58
2023-03-05T08:35:38.494Z,6.71
2023-03-05T08:38:08.061Z,6.79
2023-03-05T08:40:36.029Z,6.82
2023-03-05T08:43:05.861Z,6.88
2023-03-05T08:45:33.862Z,6.98
2023-03-05T08:48:01.918Z,7.01
2023-03-05T08:50:29.973Z,6.99
2023-03-05T08:52:58.134Z,6.97
2023-03-05T08:55:27.654Z,7.16
2023-03-05T08:57:55.702Z,7.20
2023-03-05T09:00:24.303Z,7.19
2023-03-05T09:02:52.507Z,7.26
2023-03-05T09:05:20.790Z,7.27
2023-03-05T09:07:48.973Z,7.31
2023-03-05T09:10:18.386Z,7.49
2023-03-05T09:12:49.245Z,7.60
2023-03-05T09:15:17.496Z,7.72
2023-03-05T09:17:45.566Z,7.93
2023-03-05T09:20:15.449Z,8.01
2023-03-05T09:22:43.662Z,8.01
2023-03-05T09:25:13.196Z,7.95
2023-03-05T09:27:41.267Z,7.88
2023-03-05T09:30:13.630Z,7.85
2023-03-05T09:32:41.901Z,7.93
2023-03-05T09:35:11.196Z,7.97
2023-03-05T09:37:39.299Z,8.02
2023-03-05T09:40:08.737Z,8.15
2023-03-05T09:42:49.554Z,8.13
2023-03-05T09:45:27.691Z,8.14
2023-03-05T09:48:07.538Z,8.27
2023-03-05T09:50:40.302Z,8.31
2023-03-05T09:53:24.630Z,8.44
2023-03-05T09:55:55.161Z,8.64
2023-03-05T09:58:35.331Z,8.72
2023-03-05T10:01:08.034Z,8.72
2023-03-05T10:03:52.602Z,8.75
2023-03-05T10:06:24.056Z,8.66
2023-03-05T10:08:57.141Z,8.48
2023-03-05T10:11:39.530Z,8.19
2023-03-05T10:14:13.889Z,8.00
2023-03-05T10:16:57.363Z,7.83
2023-03-05T10:19:49.976Z,7.72
2023-03-05T10:22:22.043Z,7.74
2023-03-05T10:25:15.172Z,7.87
2023-03-05T10:27:49.553Z,7.91
2023-03-05T10:30:40.105Z,7.88
2023-03-05T10:33:20.418Z,7.84
2023-03-05T10:36:03.330Z,7.77
2023-03-05T10:38:54.824Z,7.73
2023-03-05T10:41:31.013Z,7.75
2023-03-05T10:44:06.181Z,7.60
2023-03-05T10:46:38.103Z,7.68
2023-03-05T10:49:19.031Z,7.80
2023-03-05T10:51:53.106Z,7.78
2023-03-05T10:54:27.066Z,7.88
2023-03-05T10:57:05.767Z,7.85
2023-03-05T10:59:34.051Z,7.84
2023-03-05T11:02:08.896Z,7.82
2023-03-05T11:04:40.699Z,7.85
2023-03-05T11:07:30.476Z,7.88
2023-03-05T11:10:06.614Z,7.91
2023-03-05T11:12:35.669Z,8.05
2023-03-05T11:15:07.174Z,8.12
2023-03-05T11:17:38.649Z,8.19
2023-03-05T11:20:33.925Z,8.18
2023-03-05T11:23:10.673Z,8.16
2023-03-05T11:25:54.158Z,8.16
2023-03-05T11:28:33.031Z,8.16
2023-03-05T11:31:05.658Z,8.09
2023-03-05T11:33:34.111Z,8.05
2023-03-05T11:36:22.383Z,8.10
2023-03-05T11:38:54.649Z,8.22
2023-03-05T11:41:29.557Z,8.20
2023-03-05T11:44:00.196Z,8.24
2023-03-05T11:46:29.245Z,8.29
2023-03-05T11:48:59.270Z,8.24
2023-03-05T11:51:37.667Z,8.23
2023-03-05T11:54:13.321Z,8.25
2023-03-05T11:56:44.887Z,8.26
2023-03-05T11:59:17.988Z,8.18
2023-03-05T12:01:51.322Z,8.25
2023-03-05T12:04:20.664Z,8.26
2023-03-05T12:06:51.775Z,8.36
2023-03-05T12:09:28.435Z,8.40
2023-03-05T12:12:05.885Z,8.43
2023-03-05T12:14:46.270Z,8.35
2023-03-05T12:17:20.198Z,8.42
2023-03-05T12:19:54.971Z,8.46
2023-03-05T12:22:27.342Z,8.52
2023-03-05T12:25:26.768Z,8.62
2023-03-05T12:27:55.014Z,8.67
2023-03-05T12:30:56.391Z,8.66
2023-03-05T12:33:34.107Z,8.70
2023-03-05T12:36:37.195Z,8.73
2023-03-05T12:39:47.727Z,8.79
2023-03-05T12:42:52.732Z,8.93
2023-03-05T12:45:29.852Z,9.10
2023-03-05T12:48:44.041Z,9.08
2023-03-05T12:51:29.303Z,8.98
2023-03-05T12:53:57.596Z,9.02
2023-03-05T12:56:32.890Z,9.20
2023-03-05T12:59:02.991Z,9.56
2023-03-05T13:01:37.374Z,10.12
2023-03-05T13:04:11.099Z,11.18
2023-03-05T13:06:40.323Z,12.55
2023-03-05T13:09:17.236Z,13.53
2023-03-05T13:11:51.145Z,14.38
2023-03-05T13:14:36.269Z,15.00
2023-03-05T13:17:24.943Z,15.06
2023-03-05T13:19:54.032Z,15.13
2023-03-05T13:22:24.648Z,15.24
2023-03-05T13:25:11.965Z,15.63
2023-03-05T13:27:41.659Z,15.14
2023-03-05T13:30:22.867Z,14.97
2023-03-05T13:32:53.013Z,15.02
2023-03-05T13:35:22.687Z,15.42
2023-03-05T13:37:51.096Z,15.83
2023-03-05T13:40:25.000Z,16.12
2023-03-05T13:42:56.738Z,16.38
2023-03-05T13:45:28.344Z,16.58
2023-03-05T13:47:59.503Z,16.26
2023-03-05T13:50:31.031Z,16.18
2023-03-05T13:53:16.936Z,16.38
2023-03-05T13:55:45.175Z,16.23
2023-03-05T13:58:47.522Z,16.41
2023-03-05T14:01:22.925Z,16.53
2023-03-05T14:03:52.491Z,16.15
2023-03-05T14:06:22.931Z,15.97
2023-03-05T14:08:53.314Z,16.19
2023-03-05T14:11:24.249Z,16.37
2023-03-05T14:14:05.143Z,16.72
2023-03-05T14:16:33.828Z,17.11
2023-03-05T14:19:03.613Z,17.07
2023-03-05T14:21:48.230Z,16.90
2023-03-05T14:24:22.857Z,16.64
2023-03-05T14:26:53.909Z,16.57
2023-03-05T14:29:27.786Z,16.31
2023-03-05T14:31:58.748Z,16.08
2023-03-05T14:34:30.736Z,16.04
2023-03-05T14:37:01.127Z,15.88
2023-03-05T14:39:31.359Z,15.79
2023-03-05T14:42:15.856Z,15.59
2023-03-05T14:44:45.307Z,15.38
2023-03-05T14:47:13.422Z,15.18
2023-03-05T14:49:41.347Z,14.99
2023-03-05T14:52:14.749Z,14.84
2023-03-05T14:54:42.970Z,14.99
2023-03-05T14:57:16.545Z,14.84
2023-03-05T14:59:46.061Z,14.49
2023-03-05T15:02:17.349Z,14.18
2023-03-05T15:04:46.938Z,13.77
2023-03-05T15:07:20.945Z,13.38
2023-03-05T15:09:49.236Z,13.01
2023-03-05T15:12:18.504Z,12.85
2023-03-05T15:14:48.001Z,12.84
2023-03-05T15:17:20.346Z,12.54
2023-03-05T15:19:49.146Z,12.21
2023-03-05T15:22:17.995Z,11.84
2023-03-05T15:24:46.140Z,11.43
2023-03-05T15:27:14.648Z,11.20
2023-03-05T15:29:42.780Z,10.76
2023-03-05T15:32:12.432Z,10.17
2023-03-05T15:34:40.436Z,9.18
2023-03-05T15:37:08.746Z,8.45
2023-03-05T15:39:36.891Z,7.91
2023-03-05T15:42:06.438Z,7.36
2023-03-05T15:44:34.695Z,6.95
2023-03-05T15:47:02.795Z,6.61
2023-03-05T15:49:32.231Z,6.37
2023-03-05T15:52:00.774Z,6.16
2023-03-05T15:54:28.884Z,5.96
2023-03-05T15:56:56.985Z,5.80
2023-03-05T15:59:25.238Z,5.66
2023-03-05T16:01:53.718Z,5.54
2023-03-05T16:04:21.853Z,5.47
2023-03-05T16:06:51.765Z,5.34
2023-03-05T16:09:21.773Z,5.26
2023-03-05T16:11:51.622Z,5.17
2023-03-05T16:14:24.290Z,5.08
2023-03-05T16:16:54.815Z,5.10
2023-03-05T16:19:24.535Z,5.07
2023-03-05T16:21:54.038Z,4.99
2023-03-05T16:24:22.246Z,4.95
2023-03-05T16:26:50.243Z,4.88
2023-03-05T16:29:18.421Z,4.84
2023-03-05T16:31:47.688Z,4.79
2023-03-05T16:34:16.333Z,4.77
2023-03-05T16:36:49.072Z,4.71
2023-03-05T16:39:18.493Z,4.71
2023-03-05T16:41:46.682Z,4.71
2023-03-05T16:44:15.056Z,4.69
2023-03-05T16:46:47.206Z,4.71
2023-03-05T16:49:15.454Z,4.74
2023-03-05T16:51:43.494Z,4.77
2023-03-05T16:54:11.528Z,4.81
2023-03-05T16:56:40.897Z,4.79
2023-03-05T16:59:08.840Z,4.80
2023-03-05T17:01:37.053Z,4.83
2023-03-05T17:04:05.289Z,4.86
2023-03-05T17:06:34.844Z,4.89
2023-03-05T17:09:03.771Z,4.90
2023-03-05T17:11:34.592Z,4.94
2023-03-05T17:14:04.510Z,4.97
2023-03-05T17:16:32.709Z,5.02
2023-03-05T17:19:00.742Z,5.07
2023-03-05T17:21:28.907Z,5.15
2023-03-05T17:23:57.000Z,5.22
2023-03-05T17:26:24.990Z,5.28
2023-03-05T17:28:54.502Z,5.37
2023-03-05T17:31:24.160Z,5.43
2023-03-05T17:33:52.358Z,5.49
2023-03-05T17:36:21.949Z,5.57
2023-03-05T17:38:51.091Z,5.64
2023-03-05T17:41:20.094Z,5.68
2023-03-05T17:43:48.106Z,5.73
2023-03-05T17:46:17.218Z,5.77
2023-03-05T17:48:46.800Z,5.79
2023-03-05T17:51:16.788Z,5.78
2023-03-05T17:53:45.160Z,5.74
2023-03-05T17:56:17.217Z,5.72
2023-03-05T17:58:45.302Z,5.69
2023-03-05T18:01:13.269Z,5.70
2023-03-05T18:03:41.307Z,5.69
2023-03-05T18:06:10.669Z,5.69
2023-03-05T18:08:39.486Z,5.76
2023-03-05T18:11:07.592Z,5.80
2023-03-05T18:13:35.667Z,5.84
2023-03-05T18:16:04.038Z,5.89
2023-03-05T18:18:32.041Z,5.94
2023-03-05T18:21:00.176Z,6.02
2023-03-05T18:23:29.652Z,6.04
2023-03-05T18:25:59.462Z,6.06
2023-03-05T18:28:27.775Z,6.04
2023-03-05T18:30:55.814Z,6.01
2023-03-05T18:33:25.947Z,6.04
2023-03-05T18:35:54.740Z,6.03
2023-03-05T18:38:24.261Z,6.00
2023-03-05T18:40:55.260Z,5.97
2023-03-05T18:43:24.785Z,5.99
2023-03-05T18:45:55.696Z,5.96
2023-03-05T18:48:24.291Z,5.94
2023-03-05T18:50:58.521Z,5.92
2023-03-05T18:53:27.297Z,5.88
2023-03-05T18:56:03.178Z,5.84
2023-03-05T18:58:31.470Z,5.86
2023-03-05T19:01:04.367Z,5.87
2023-03-05T19:03:32.683Z,5.90
2023-03-05T19:06:01.817Z,5.91
2023-03-05T19:08:30.124Z,5.87
2023-03-05T19:11:02.878Z,5.83
2023-03-05T19:13:40.839Z,5.85
2023-03-05T19:16:11.404Z,5.83
2023-03-05T19:19:06.375Z,5.79
2023-03-05T19:21:34.400Z,5.81
2023-03-05T19:24:02.470Z,5.79
2023-03-05T19:26:31.816Z,5.78
2023-03-05T19:28:59.764Z,5.77
2023-03-05T19:31:27.888Z,5.80
2023-03-05T19:33:56.007Z,5.83
2023-03-05T19:36:24.490Z,5.85
2023-03-05T19:38:52.586Z,5.82
2023-03-05T19:41:21.840Z,5.85
2023-03-05T19:43:51.255Z,5.78
2023-03-05T19:46:19.547Z,5.79
2023-03-05T19:48:47.718Z,5.86
2023-03-05T19:51:19.152Z,5.84
2023-03-05T19:53:48.189Z,5.90
2023-03-05T19:56:17.454Z,5.92
2023-03-05T19:58:48.906Z,5.96
2023-03-05T20:01:20.156Z,6.01
2023-03-05T20:03:49.883Z,6.01
2023-03-05T20:06:18.666Z,6.02
2023-03-05T20:08:47.199Z,6.05
2023-03-05T20:11:17.048Z,6.05
2023-03-05T20:13:45.649Z,6.11
2023-03-05T20:16:19.812Z,6.11
2023-03-05T20:18:52.609Z,6.13
2023-03-05T20:21:23.222Z,6.17
2023-03-05T20:23:51.661Z,6.16
2023-03-05T20:26:19.998Z,6.10
2023-03-05T20:28:48.600Z,6.04
2023-03-05T20:31:21.202Z,6.00
2023-03-05T20:33:49.552Z,5.98
2023-03-05T20:36:17.804Z,5.94
2023-03-05T20:38:46.392Z,5.88
2023-03-05T20:41:16.717Z,5.88
2023-03-05T20:43:46.605Z,5.85
2023-03-05T20:46:21.589Z,5.79
2023-03-05T20:48:49.932Z,5.73
2023-03-05T20:51:22.514Z,5.65
2023-03-05T20:53:50.917Z,5.53
2023-03-05T20:56:19.007Z,5.47
2023-03-05T20:58:47.039Z,5.41
2023-03-05T21:01:15.142Z,5.37
2023-03-05T21:03:44.698Z,5.33
2023-03-05T21:06:12.724Z,5.31
2023-03-05T21:08:41.030Z,5.30
2023-03-05T21:11:10.167Z,5.30
2023-03-05T21:13:38.950Z,5.29
2023-03-05T21:16:08.539Z,5.26
2023-03-05T21:18:36.730Z,5.27
2023-03-05T21:21:08.118Z,5.23
2023-03-05T21:23:36.645Z,5.24
2023-03-05T21:26:05.183Z,5.20
2023-03-05T21:28:33.433Z,5.15
2023-03-05T21:31:08.465Z,5.11
2023-03-05T21:33:36.702Z,5.09
2023-03-05T21:36:07.315Z,5.05
2023-03-05T21:38:35.357Z,4.99
2023-03-05T21:41:04.019Z,4.96
2023-03-05T21:43:32.634Z,4.92
2023-03-05T21:46:03.125Z,4.91
2023-03-05T21:48:32.000Z,4.89
2023-03-05T21:51:00.504Z,4.87
2023-03-05T21:53:29.834Z,4.84
2023-03-05T21:56:25.478Z,4.79
2023-03-05T21:58:54.056Z,4.82
2023-03-05T22:01:22.707Z,4.78
2023-03-05T22:03:51.248Z,4.79
2023-03-05T22:06:20.058Z,4.78
2023-03-05T22:08:49.993Z,4.77
2023-03-05T22:11:20.792Z,4.79
2023-03-05T22:13:48.842Z,4.79
2023-03-05T22:16:23.757Z,4.79
2023-03-05T22:18:51.619Z,4.79
2023-03-05T22:21:23.033Z,4.79
2023-03-05T22:23:53.443Z,4.75
2023-03-05T22:26:21.560Z,4.69
2023-03-05T22:28:49.679Z,4.69
2023-03-05T22:31:22.332Z,4.68
2023-03-05T22:33:50.898Z,4.67
2023-03-05T22:36:19.373Z,4.68
2023-03-05T22:38:47.615Z,4.66
2023-03-05T22:41:19.724Z,4.64
2023-03-05T22:43:48.912Z,4.65
2023-03-05T22:46:20.063Z,4.65
2023-03-05T22:48:48.210Z,4.65
2023-03-05T22:51:17.336Z,4.64
2023-03-05T22:53:45.987Z,4.61
2023-03-05T22:56:17.489Z,4.63
2023-03-05T22:58:45.693Z,4.59
2023-03-05T23:01:14.776Z,4.62
2023-03-05T23:04:00.490Z,4.63
2023-03-05T23:06:28.783Z,4.69
2023-03-05T23:08:56.886Z,4.73
2023-03-05T23:11:26.209Z,4.71
2023-03-05T23:13:54.162Z,4.76
2023-03-05T23:16:22.172Z,4.82
2023-03-05T23:18:50.270Z,4.86
2023-03-05T23:21:18.350Z,4.90
2023-03-05T23:23:46.512Z,4.95
2023-03-05T23:26:14.491Z,5.01
2023-03-05T23:28:44.069Z,5.06
2023-03-05T23:31:12.231Z,5.11
2023-03-05T23:33:40.284Z,5.13
2023-03-05T23:36:09.697Z,5.14
2023-03-05T23:38:37.861Z,5.15
2023-03-05T23:41:09.475Z,5.13
2023-03-05T23:43:37.689Z,5.15
2023-03-05T23:46:11.679Z,5.11
2023-03-05T23:48:39.908Z,5.20
2023-03-05T23:51:09.916Z,5.20
2023-03-05T23:53:37.856Z,5.23
2023-03-05T23:56:11.241Z,5.25
2023-03-05T23:58:39.806Z,5.29
